createdAt,value
2019-06-26T00:00:46.200Z,0
2019-06-26T00:01:56.165Z,0
2019-06-26T00:03:06.113Z,0
2019-06-26T00:04:16.060Z,0
2019-06-26T00:05:26.112Z,4
2019-06-26T00:06:35.894Z,4
2019-06-26T00:07:45.884Z,4
2019-06-26T00:08:55.822Z,4
2019-06-26T00:10:05.772Z,4
2019-06-26T00:11:15.708Z,4
2019-06-26T00:12:25.662Z,4
2019-06-26T00:13:35.597Z,4
2019-06-26T00:14:46.240Z,0
2019-06-26T00:15:55.972Z,0
2019-06-26T00:17:05.932Z,0
2019-06-26T00:18:15.901Z,0
2019-06-26T00:19:25.859Z,0
2019-06-26T00:20:35.842Z,0
2019-06-26T00:21:45.831Z,4
2019-06-26T00:22:55.829Z,4
2019-06-26T00:24:05.799Z,4
2019-06-26T00:25:15.753Z,4
2019-06-26T00:26:25.707Z,4
2019-06-26T00:27:35.654Z,4
2019-06-26T00:28:45.351Z,4
2019-06-26T00:29:55.286Z,4
2019-06-26T00:31:05.340Z,4
2019-06-26T00:32:15.356Z,4
2019-06-26T00:33:25.291Z,4
2019-06-26T00:34:35.260Z,4
2019-06-26T00:35:45.203Z,4
2019-06-26T00:36:55.172Z,4
2019-06-26T00:38:05.204Z,4
2019-06-26T00:39:15.145Z,4
2019-06-26T00:40:25.083Z,4
2019-06-26T00:41:35.073Z,8
2019-06-26T00:42:45.160Z,4
2019-06-26T00:43:55.253Z,4
2019-06-26T00:45:05.081Z,8
2019-06-26T00:46:15.116Z,8
2019-06-26T00:47:25.053Z,8
2019-06-26T00:48:34.997Z,4
2019-06-26T00:49:44.970Z,8
2019-06-26T00:50:54.928Z,8
2019-06-26T00:52:04.882Z,8
2019-06-26T00:53:14.839Z,8
2019-06-26T00:54:24.774Z,12
2019-06-26T00:55:34.711Z,12
2019-06-26T00:56:44.648Z,12
2019-06-26T00:57:54.579Z,12
2019-06-26T00:59:04.579Z,12
2019-06-26T01:00:14.718Z,16
2019-06-26T01:01:24.741Z,16
2019-06-26T01:02:34.451Z,16
2019-06-26T01:03:44.390Z,16
2019-06-26T01:04:54.122Z,20
2019-06-26T01:06:04.061Z,20
2019-06-26T01:07:14.038Z,20
2019-06-26T01:08:23.734Z,24
2019-06-26T01:09:33.705Z,24
2019-06-26T01:10:43.655Z,28
2019-06-26T01:11:53.623Z,28
2019-06-26T01:13:03.567Z,32
2019-06-26T01:14:13.541Z,36
2019-06-26T01:15:23.523Z,36
2019-06-26T01:16:33.499Z,36
2019-06-26T01:17:43.438Z,40
2019-06-26T01:18:53.418Z,44
2019-06-26T01:20:03.163Z,48
2019-06-26T01:21:12.940Z,48
2019-06-26T01:22:22.960Z,52
2019-06-26T01:23:32.907Z,56
2019-06-26T01:24:42.350Z,60
2019-06-26T01:25:52.295Z,64
2019-06-26T01:27:02.229Z,68
2019-06-26T01:28:12.163Z,72
2019-06-26T01:29:22.095Z,76
2019-06-26T01:30:32.036Z,84
2019-06-26T01:31:42.029Z,88
2019-06-26T01:32:52.016Z,100
2019-06-26T01:34:01.958Z,104
2019-06-26T01:35:11.899Z,112
2019-06-26T01:36:21.830Z,116
2019-06-26T01:37:31.824Z,124
2019-06-26T01:38:41.773Z,128
2019-06-26T01:39:51.725Z,144
2019-06-26T01:41:01.689Z,152
2019-06-26T01:42:11.638Z,164
2019-06-26T01:43:21.598Z,176
2019-06-26T01:44:31.285Z,196
2019-06-26T01:45:40.963Z,212
2019-06-26T01:46:50.908Z,224
2019-06-26T01:48:00.864Z,236
2019-06-26T01:49:10.560Z,240
2019-06-26T01:50:20.552Z,244
2019-06-26T01:51:30.538Z,256
2019-06-26T01:52:40.239Z,260
2019-06-26T01:53:50.190Z,260
2019-06-26T01:55:00.136Z,264
2019-06-26T01:56:10.271Z,272
2019-06-26T01:57:20.211Z,280
2019-06-26T01:58:30.211Z,288
2019-06-26T01:59:39.936Z,296
2019-06-26T02:00:50.206Z,312
2019-06-26T02:02:00.150Z,324
2019-06-26T02:03:10.107Z,336
2019-06-26T02:04:22.623Z,348
2019-06-26T02:05:32.363Z,364
2019-06-26T02:06:42.381Z,380
2019-06-26T02:07:52.315Z,392
2019-06-26T02:09:02.258Z,408
2019-06-26T02:10:12.452Z,428
2019-06-26T02:11:22.388Z,452
2019-06-26T02:12:32.333Z,476
2019-06-26T02:13:42.277Z,504
2019-06-26T02:14:52.226Z,536
2019-06-26T02:16:02.161Z,556
2019-06-26T02:17:12.101Z,568
2019-06-26T02:18:22.056Z,580
2019-06-26T02:19:32.008Z,588
2019-06-26T02:20:41.963Z,604
2019-06-26T02:21:51.895Z,624
2019-06-26T02:23:01.829Z,636
2019-06-26T02:24:11.792Z,652
2019-06-26T02:25:21.767Z,676
2019-06-26T02:26:31.722Z,692
2019-06-26T02:27:41.655Z,700
2019-06-26T02:28:51.605Z,720
2019-06-26T02:30:01.552Z,744
2019-06-26T02:31:11.560Z,780
2019-06-26T02:32:21.141Z,812
2019-06-26T02:33:31.102Z,832
2019-06-26T02:34:40.820Z,852
2019-06-26T02:35:50.786Z,876
2019-06-26T02:37:00.791Z,912
2019-06-26T02:38:10.787Z,948
2019-06-26T02:39:20.755Z,996
2019-06-26T02:40:30.698Z,1040
2019-06-26T02:41:40.650Z,1040
2019-06-26T02:42:50.594Z,1024
2019-06-26T02:44:00.566Z,1056
2019-06-26T02:45:10.279Z,1112
2019-06-26T02:46:20.289Z,1176
2019-06-26T02:47:30.313Z,1240
2019-06-26T02:48:40.007Z,1292
2019-06-26T02:49:49.995Z,1328
2019-06-26T02:50:59.947Z,1344
2019-06-26T02:52:09.929Z,1332
2019-06-26T02:53:19.711Z,1332
2019-06-26T02:54:29.660Z,1316
2019-06-26T02:55:39.624Z,1320
2019-06-26T02:56:49.592Z,1328
2019-06-26T02:57:59.297Z,1348
2019-06-26T02:59:09.310Z,1416
2019-06-26T03:00:19.255Z,1504
2019-06-26T03:01:29.214Z,1616
2019-06-26T03:02:39.174Z,1728
2019-06-26T03:03:49.128Z,1788
2019-06-26T03:04:59.108Z,1840
2019-06-26T03:06:09.183Z,1908
2019-06-26T03:07:19.117Z,1940
2019-06-26T03:08:28.827Z,1948
2019-06-26T03:09:38.536Z,1960
2019-06-26T03:10:48.475Z,1956
2019-06-26T03:11:58.155Z,1944
2019-06-26T03:13:08.085Z,1900
2019-06-26T03:14:17.785Z,1824
2019-06-26T03:15:27.466Z,1748
2019-06-26T03:16:37.412Z,1728
2019-06-26T03:18:02.077Z,1752
2019-06-26T03:19:12.057Z,1856
2019-06-26T03:20:22.040Z,1992
2019-06-26T03:21:31.977Z,2100
2019-06-26T03:22:41.912Z,2144
2019-06-26T03:23:51.601Z,2140
2019-06-26T03:25:01.553Z,2056
2019-06-26T03:26:11.490Z,1972
2019-06-26T03:27:21.182Z,1792
2019-06-26T03:28:31.121Z,1764
2019-06-26T03:29:40.809Z,1780
2019-06-26T03:30:50.785Z,1804
2019-06-26T03:32:00.768Z,1860
2019-06-26T03:33:10.731Z,1932
2019-06-26T03:34:20.697Z,2000
2019-06-26T03:35:30.650Z,2016
2019-06-26T03:36:40.623Z,1924
2019-06-26T03:37:50.591Z,1772
2019-06-26T03:39:00.052Z,1712
2019-06-26T03:40:09.991Z,1688
2019-06-26T03:41:19.986Z,1704
2019-06-26T03:42:29.968Z,1724
2019-06-26T03:43:42.738Z,1776
2019-06-26T03:44:52.684Z,1848
2019-06-26T03:46:02.714Z,1956
2019-06-26T03:47:12.652Z,2048
2019-06-26T03:48:22.587Z,2152
2019-06-26T03:49:32.522Z,2248
2019-06-26T03:50:42.217Z,2348
2019-06-26T03:51:52.262Z,2400
2019-06-26T03:53:02.257Z,2380
2019-06-26T03:54:12.219Z,2380
2019-06-26T03:55:22.174Z,2444
2019-06-26T03:56:32.209Z,2540
2019-06-26T03:57:42.710Z,2692
2019-06-26T03:58:52.711Z,2820
2019-06-26T04:00:02.872Z,2944
2019-06-26T04:01:12.613Z,2892
2019-06-26T04:02:22.590Z,2844
2019-06-26T04:03:32.533Z,2780
2019-06-26T04:04:42.556Z,2712
2019-06-26T04:05:52.532Z,2624
2019-06-26T04:07:02.872Z,2596
2019-06-26T04:08:12.820Z,2536
2019-06-26T04:09:22.774Z,2592
2019-06-26T04:10:32.914Z,2712
2019-06-26T04:11:42.873Z,2816
2019-06-26T04:12:52.827Z,2908
2019-06-26T04:14:02.785Z,2868
2019-06-26T04:15:12.726Z,2888
2019-06-26T04:16:22.413Z,3032
2019-06-26T04:17:31.851Z,3140
2019-06-26T04:18:41.786Z,3248
2019-06-26T04:19:51.804Z,3304
2019-06-26T04:21:01.743Z,3448
2019-06-26T04:22:11.697Z,3588
2019-06-26T04:23:21.666Z,3860
2019-06-26T04:24:31.602Z,3972
2019-06-26T04:25:45.139Z,4104
2019-06-26T04:26:55.088Z,4316
2019-06-26T04:28:08.516Z,4640
2019-06-26T04:29:18.461Z,4644
2019-06-26T04:30:28.584Z,4840
2019-06-26T04:31:38.606Z,4704
2019-06-26T04:32:48.309Z,4644
2019-06-26T04:33:58.244Z,4664
2019-06-26T04:35:07.716Z,4672
2019-06-26T04:36:17.694Z,4628
2019-06-26T04:37:27.628Z,4564
2019-06-26T04:38:37.312Z,4540
2019-06-26T04:39:47.283Z,4740
2019-06-26T04:40:57.259Z,4788
2019-06-26T04:42:07.222Z,4564
2019-06-26T04:43:17.157Z,4524
2019-06-26T04:44:26.852Z,4480
2019-06-26T04:45:36.830Z,4364
2019-06-26T04:46:46.839Z,4328
2019-06-26T04:47:56.810Z,4332
2019-06-26T04:49:06.524Z,4336
2019-06-26T04:50:16.478Z,4392
2019-06-26T04:51:26.461Z,4436
2019-06-26T04:52:36.423Z,4468
2019-06-26T04:53:46.112Z,4452
2019-06-26T04:54:55.602Z,4444
2019-06-26T04:56:05.653Z,4428
2019-06-26T04:57:15.664Z,4452
2019-06-26T04:58:25.674Z,4484
2019-06-26T04:59:35.633Z,4528
2019-06-26T05:00:45.636Z,4588
2019-06-26T05:01:55.583Z,4688
2019-06-26T05:03:05.285Z,4796
2019-06-26T05:04:15.290Z,4884
2019-06-26T05:05:43.594Z,4988
2019-06-26T05:06:54.352Z,5040
2019-06-26T05:08:04.304Z,5092
2019-06-26T05:09:14.255Z,5212
2019-06-26T05:10:24.330Z,5320
2019-06-26T05:11:34.274Z,5404
2019-06-26T05:12:43.723Z,5476
2019-06-26T05:13:53.701Z,5696
2019-06-26T05:15:03.688Z,5744
2019-06-26T05:16:25.358Z,5644
2019-06-26T05:17:35.302Z,5728
2019-06-26T05:18:45.243Z,5804
2019-06-26T05:19:55.222Z,5852
2019-06-26T05:21:05.166Z,5892
2019-06-26T05:22:14.920Z,6028
2019-06-26T05:23:24.911Z,6104
2019-06-26T05:24:34.904Z,6308
2019-06-26T05:25:44.866Z,6232
2019-06-26T05:26:54.809Z,6424
2019-06-26T05:28:08.020Z,6744
2019-06-26T05:29:18.173Z,6648
2019-06-26T05:30:28.130Z,6572
2019-06-26T05:31:38.082Z,6600
2019-06-26T05:32:48.359Z,6592
2019-06-26T05:33:58.491Z,6752
2019-06-26T05:35:08.445Z,6692
2019-06-26T05:36:18.384Z,6932
2019-06-26T05:37:28.325Z,7108
2019-06-26T05:38:38.006Z,7324
2019-06-26T05:39:48.064Z,7580
2019-06-26T05:41:02.203Z,7508
2019-06-26T05:42:14.012Z,7320
2019-06-26T05:43:23.966Z,7520
2019-06-26T05:44:33.931Z,8056
2019-06-26T05:45:43.876Z,7200
2019-06-26T05:46:53.953Z,6780
2019-06-26T05:48:03.913Z,6688
2019-06-26T05:49:13.851Z,6584
2019-06-26T05:50:23.792Z,6752
2019-06-26T05:51:33.742Z,6864
2019-06-26T05:52:47.149Z,6648
2019-06-26T05:53:57.088Z,6368
2019-06-26T05:55:06.621Z,6152
2019-06-26T05:56:16.575Z,6008
2019-06-26T05:57:26.564Z,5800
2019-06-26T05:58:36.530Z,5936
2019-06-26T05:59:46.290Z,6488
2019-06-26T06:00:56.273Z,7084
2019-06-26T06:02:06.287Z,7336
2019-06-26T06:03:16.253Z,7276
2019-06-26T06:04:26.250Z,7280
2019-06-26T06:05:36.187Z,7420
2019-06-26T06:06:49.425Z,7512
2019-06-26T06:07:59.372Z,7664
2019-06-26T06:09:09.611Z,7724
2019-06-26T06:10:19.635Z,7484
2019-06-26T06:11:29.628Z,7328
2019-06-26T06:12:39.577Z,7328
2019-06-26T06:13:49.606Z,7232
2019-06-26T06:14:59.739Z,7084
2019-06-26T06:16:13.351Z,7132
2019-06-26T06:17:23.307Z,7392
2019-06-26T06:18:33.281Z,7468
2019-06-26T06:19:43.267Z,7552
2019-06-26T06:20:53.467Z,7508
2019-06-26T06:22:03.435Z,7320
2019-06-26T06:23:13.438Z,7044
2019-06-26T06:24:22.894Z,7228
2019-06-26T06:25:32.849Z,7416
2019-06-26T06:26:42.787Z,6800
2019-06-26T06:27:52.781Z,7056
2019-06-26T06:29:02.793Z,6560
2019-06-26T06:30:12.887Z,6304
2019-06-26T06:31:22.918Z,6044
2019-06-26T06:32:32.855Z,5468
2019-06-26T06:33:42.878Z,4948
2019-06-26T06:34:52.606Z,4572
2019-06-26T06:36:02.558Z,4124
2019-06-26T06:37:12.509Z,3880
2019-06-26T06:38:21.956Z,3820
2019-06-26T06:39:31.961Z,3732
2019-06-26T06:40:41.903Z,3816
2019-06-26T06:41:51.854Z,3836
2019-06-26T06:43:01.797Z,3832
2019-06-26T06:44:11.770Z,3888
2019-06-26T06:45:21.735Z,3996
2019-06-26T06:46:31.491Z,4128
2019-06-26T06:47:41.519Z,4188
2019-06-26T06:48:51.001Z,4100
2019-06-26T06:50:00.977Z,4072
2019-06-26T06:51:11.008Z,4116
2019-06-26T06:52:23.858Z,4200
2019-06-26T06:53:33.828Z,4256
2019-06-26T06:54:43.776Z,4260
2019-06-26T06:55:53.751Z,4220
2019-06-26T06:57:03.864Z,4212
2019-06-26T06:58:13.800Z,4168
2019-06-26T06:59:23.739Z,4124
2019-06-26T07:00:33.780Z,4084
2019-06-26T07:01:43.561Z,4072
2019-06-26T07:02:53.497Z,4080
2019-06-26T07:04:03.601Z,4056
2019-06-26T07:05:13.551Z,4088
2019-06-26T07:06:23.518Z,4072
2019-06-26T07:07:33.497Z,4064
2019-06-26T07:08:43.488Z,4096
2019-06-26T07:09:53.898Z,4148
2019-06-26T07:11:03.963Z,4180
2019-06-26T07:12:13.929Z,4220
2019-06-26T07:13:23.871Z,4276
2019-06-26T07:14:33.822Z,4396
2019-06-26T07:15:43.778Z,4512
2019-06-26T07:16:53.725Z,4328
2019-06-26T07:18:03.695Z,4332
2019-06-26T07:19:13.643Z,4852
2019-06-26T07:20:23.599Z,4948
2019-06-26T07:21:33.615Z,5012
2019-06-26T07:22:43.561Z,5008
2019-06-26T07:23:53.539Z,4976
2019-06-26T07:25:03.493Z,5108
2019-06-26T07:26:15.751Z,5288
2019-06-26T07:27:25.443Z,5616
2019-06-26T07:28:35.399Z,6072
2019-06-26T07:29:45.337Z,6204
2019-06-26T07:30:55.286Z,6320
2019-06-26T07:32:05.283Z,6368
2019-06-26T07:33:15.233Z,6620
2019-06-26T07:34:25.174Z,6636
2019-06-26T07:35:35.201Z,7084
2019-06-26T07:36:45.288Z,7664
2019-06-26T07:37:55.266Z,7988
2019-06-26T07:39:07.957Z,8136
2019-06-26T07:40:17.913Z,7672
2019-06-26T07:41:27.987Z,7128
2019-06-26T07:42:37.937Z,6884
2019-06-26T07:43:47.627Z,6988
2019-06-26T07:44:57.323Z,7332
2019-06-26T07:46:07.354Z,7624
2019-06-26T07:47:47.168Z,7592
2019-06-26T07:49:00.088Z,6980
2019-06-26T07:50:10.049Z,6796
2019-06-26T07:51:20.073Z,5996
2019-06-26T07:52:30.025Z,6024
2019-06-26T07:53:39.995Z,5800
2019-06-26T07:54:49.457Z,5784
2019-06-26T07:55:59.567Z,5664
2019-06-26T07:57:09.537Z,5312
2019-06-26T07:58:19.493Z,5268
2019-06-26T07:59:29.455Z,5380
2019-06-26T08:00:39.589Z,5968
2019-06-26T08:01:49.554Z,6064
2019-06-26T08:02:59.531Z,6196
2019-06-26T08:04:12.347Z,6244
2019-06-26T08:05:21.859Z,5888
2019-06-26T08:06:31.844Z,5700
2019-06-26T08:07:41.800Z,5772
2019-06-26T08:08:51.035Z,5844
2019-06-26T08:10:01.081Z,5892
2019-06-26T08:11:13.685Z,5716
2019-06-26T08:12:23.406Z,5784
2019-06-26T08:13:33.357Z,6152
2019-06-26T08:14:43.359Z,6620
2019-06-26T08:15:53.439Z,6696
2019-06-26T08:17:03.384Z,6704
2019-06-26T08:18:13.340Z,6736
2019-06-26T08:19:23.295Z,6908
2019-06-26T08:20:47.026Z,6964
2019-06-26T08:22:19.074Z,7180
2019-06-26T08:23:28.828Z,7176
2019-06-26T08:24:38.523Z,7076
2019-06-26T08:25:48.479Z,7264
2019-06-26T08:26:58.468Z,7248
2019-06-26T08:28:08.408Z,7444
2019-06-26T08:29:18.378Z,7500
2019-06-26T08:30:28.348Z,7840
2019-06-26T08:31:38.290Z,8080
2019-06-26T08:32:48.261Z,8548
2019-06-26T08:33:58.075Z,9140
2019-06-26T08:35:08.047Z,9380
2019-06-26T08:36:18.077Z,9416
2019-06-26T08:37:28.022Z,9420
2019-06-26T08:38:37.978Z,9648
2019-06-26T08:39:48.016Z,9484
2019-06-26T08:40:57.969Z,9504
2019-06-26T08:42:08.073Z,9820
2019-06-26T08:43:18.020Z,10592
2019-06-26T08:44:27.996Z,11132
2019-06-26T08:45:37.976Z,11344
2019-06-26T08:46:47.918Z,11260
2019-06-26T08:47:57.872Z,11092
2019-06-26T08:49:32.901Z,10384
2019-06-26T08:50:43.009Z,9980
2019-06-26T08:51:53.013Z,9752
2019-06-26T08:53:03.003Z,9928
2019-06-26T08:54:12.956Z,10216
2019-06-26T08:55:22.907Z,10404
2019-06-26T08:56:32.787Z,10924
2019-06-26T08:57:42.819Z,11692
2019-06-26T08:58:53.003Z,12184
2019-06-26T09:00:02.965Z,12564
2019-06-26T09:01:12.978Z,12840
2019-06-26T09:02:22.456Z,12928
2019-06-26T09:03:32.410Z,12788
2019-06-26T09:04:42.352Z,12656
2019-06-26T09:05:55.848Z,12900
2019-06-26T09:07:05.796Z,12864
2019-06-26T09:08:16.018Z,13808
2019-06-26T09:09:26.296Z,14792
2019-06-26T09:10:36.735Z,16004
2019-06-26T09:11:46.739Z,17216
2019-06-26T09:12:56.685Z,17984
2019-06-26T09:14:06.417Z,19520
2019-06-26T09:15:16.148Z,20160
2019-06-26T09:16:26.104Z,20128
2019-06-26T09:17:35.886Z,19008
2019-06-26T09:18:45.868Z,18496
2019-06-26T09:19:55.822Z,18464
2019-06-26T09:21:05.916Z,18016
2019-06-26T09:22:15.863Z,17408
2019-06-26T09:23:25.827Z,15892
2019-06-26T09:24:38.248Z,14920
2019-06-26T09:25:48.222Z,14096
2019-06-26T09:26:58.184Z,13980
2019-06-26T09:28:08.138Z,14268
2019-06-26T09:29:17.833Z,15076
2019-06-26T09:30:31.614Z,15452
2019-06-26T09:31:41.603Z,17056
2019-06-26T09:32:51.595Z,19168
2019-06-26T09:34:01.052Z,19968
2019-06-26T09:35:10.792Z,21024
2019-06-26T09:36:20.571Z,22464
2019-06-26T09:37:30.526Z,24320
2019-06-26T09:38:40.255Z,23712
2019-06-26T09:39:49.959Z,23488
2019-06-26T09:40:59.935Z,22624
2019-06-26T09:42:10.470Z,21760
2019-06-26T09:43:20.433Z,20544
2019-06-26T09:44:30.592Z,18880
2019-06-26T09:45:40.285Z,17376
2019-06-26T09:46:50.355Z,16172
2019-06-26T09:48:00.345Z,15552
2019-06-26T09:49:10.402Z,14548
2019-06-26T09:50:20.356Z,13724
2019-06-26T09:51:30.504Z,13068
2019-06-26T09:52:40.550Z,12524
2019-06-26T09:53:54.741Z,12296
2019-06-26T09:55:04.517Z,12748
2019-06-26T09:56:14.473Z,13584
2019-06-26T09:57:24.439Z,15044
2019-06-26T09:58:34.388Z,16544
2019-06-26T09:59:44.334Z,17568
2019-06-26T10:00:54.037Z,17216
2019-06-26T10:02:03.997Z,17536
2019-06-26T10:03:14.076Z,18112
2019-06-26T10:04:24.046Z,18464
2019-06-26T10:05:34.004Z,17888
2019-06-26T10:06:43.951Z,17952
2019-06-26T10:07:53.945Z,18272
2019-06-26T10:09:03.988Z,18336
2019-06-26T10:10:13.959Z,17920
2019-06-26T10:11:23.921Z,18560
2019-06-26T10:12:33.646Z,19040
2019-06-26T10:13:43.603Z,18624
2019-06-26T10:14:55.269Z,19264
2019-06-26T10:16:07.455Z,19744
2019-06-26T10:17:17.410Z,19040
2019-06-26T10:18:27.362Z,18240
2019-06-26T10:19:37.387Z,16992
2019-06-26T10:20:47.343Z,15308
2019-06-26T10:21:57.317Z,14052
2019-06-26T10:23:07.119Z,13268
2019-06-26T10:24:16.817Z,13064
2019-06-26T10:25:26.820Z,12948
2019-06-26T10:26:39.507Z,12920
2019-06-26T10:27:49.241Z,13240
2019-06-26T10:28:58.735Z,13364
2019-06-26T10:30:08.975Z,13428
2019-06-26T10:31:23.092Z,13560
2019-06-26T10:32:33.184Z,12856
2019-06-26T10:33:43.160Z,12024
2019-06-26T10:34:52.862Z,11628
2019-06-26T10:36:02.307Z,11760
2019-06-26T10:37:12.353Z,11256
2019-06-26T10:38:22.322Z,10432
2019-06-26T10:39:32.478Z,9420
2019-06-26T10:40:42.467Z,8684
2019-06-26T10:41:57.114Z,8140
2019-06-26T10:43:07.302Z,8188
2019-06-26T10:44:16.820Z,8340
2019-06-26T10:45:26.798Z,8472
2019-06-26T10:46:36.575Z,8456
2019-06-26T10:47:47.292Z,9040
2019-06-26T10:48:57.335Z,9164
2019-06-26T10:50:07.309Z,9508
2019-06-26T10:51:17.004Z,9516
2019-06-26T10:52:26.960Z,9804
2019-06-26T10:53:36.911Z,9828
2019-06-26T10:54:49.346Z,9832
2019-06-26T10:55:59.341Z,9928
2019-06-26T10:57:09.305Z,9880
2019-06-26T10:58:19.356Z,9628
2019-06-26T10:59:29.311Z,9040
2019-06-26T11:00:39.272Z,8768
2019-06-26T11:01:49.340Z,9064
2019-06-26T11:02:59.277Z,9244
2019-06-26T11:04:09.236Z,9352
2019-06-26T11:05:19.217Z,9380
2019-06-26T11:06:29.200Z,9348
2019-06-26T11:07:41.436Z,9248
2019-06-26T11:08:51.420Z,9008
2019-06-26T11:10:01.386Z,9576
2019-06-26T11:11:11.380Z,10580
2019-06-26T11:12:21.335Z,10668
2019-06-26T11:13:31.323Z,10948
2019-06-26T11:14:41.332Z,10772
2019-06-26T11:15:51.043Z,10620
2019-06-26T11:17:01.020Z,10636
2019-06-26T11:18:10.993Z,10500
2019-06-26T11:19:21.012Z,10748
2019-06-26T11:20:31.039Z,10636
2019-06-26T11:21:40.996Z,10728
2019-06-26T11:22:50.971Z,10800
2019-06-26T11:24:00.734Z,10796
2019-06-26T11:25:10.719Z,10984
2019-06-26T11:26:20.663Z,11424
2019-06-26T11:27:30.620Z,12048
2019-06-26T11:28:40.592Z,12800
2019-06-26T11:29:50.544Z,14012
2019-06-26T11:31:00.257Z,15864
2019-06-26T11:32:14.041Z,18464
2019-06-26T11:33:24.009Z,20768
2019-06-26T11:34:33.951Z,22496
2019-06-26T11:35:44.157Z,24896
2019-06-26T11:37:10.398Z,23200
2019-06-26T11:38:20.387Z,24512
2019-06-26T11:39:30.418Z,26368
2019-06-26T11:40:41.015Z,30432
2019-06-26T11:41:50.961Z,34752
2019-06-26T11:43:00.955Z,34656
2019-06-26T11:44:10.511Z,47008
2019-06-26T11:45:20.672Z,32416
2019-06-26T11:46:30.632Z,46400
2019-06-26T11:47:40.380Z,98112
2019-06-26T11:48:53.503Z,101120
2019-06-26T11:50:07.613Z,31296
2019-06-26T11:51:17.596Z,70464
2019-06-26T11:52:27.300Z,93312
2019-06-26T11:53:37.303Z,91936
2019-06-26T11:55:04.166Z,91648
2019-06-26T11:56:14.346Z,105376
2019-06-26T11:57:24.486Z,108064
2019-06-26T11:58:34.474Z,71680
2019-06-26T11:59:44.438Z,112192
2019-06-26T12:00:54.165Z,83136
2019-06-26T12:02:04.283Z,40352
2019-06-26T12:03:18.014Z,32736
2019-06-26T12:04:28.019Z,85312
2019-06-26T12:05:37.978Z,110688
2019-06-26T12:06:50.908Z,98048
2019-06-26T12:08:00.931Z,59872
2019-06-26T12:09:10.917Z,89600
2019-06-26T12:10:20.902Z,37696
2019-06-26T12:11:30.919Z,31424
2019-06-26T12:12:40.874Z,26592
2019-06-26T12:13:50.588Z,22912
2019-06-26T12:15:00.598Z,32736
2019-06-26T12:16:10.386Z,33152
2019-06-26T12:17:20.341Z,66048
2019-06-26T12:18:30.326Z,77184
2019-06-26T12:19:40.389Z,111648
2019-06-26T12:20:50.369Z,116512
2019-06-26T12:22:00.346Z,44576
2019-06-26T12:23:10.436Z,41152
2019-06-26T12:24:20.399Z,46528
2019-06-26T12:25:34.159Z,46656
2019-06-26T12:26:43.958Z,53408
2019-06-26T12:27:53.676Z,57440
2019-06-26T12:29:03.688Z,44288
2019-06-26T12:30:13.665Z,64032
2019-06-26T12:31:23.634Z,36800
2019-06-26T12:32:41.708Z,53952
2019-06-26T12:34:09.978Z,34144
2019-06-26T12:35:19.960Z,32768
2019-06-26T12:36:30.433Z,100832
2019-06-26T12:37:45.301Z,41600
2019-06-26T12:38:55.294Z,38368
2019-06-26T12:40:05.832Z,46624
2019-06-26T12:41:15.849Z,33280
2019-06-26T12:42:25.822Z,49824
2019-06-26T12:43:35.567Z,41632
2019-06-26T12:44:45.530Z,61344
2019-06-26T12:45:55.511Z,107360
2019-06-26T12:47:05.491Z,65728
2019-06-26T12:48:18.646Z,48544
2019-06-26T12:49:28.619Z,30528
2019-06-26T12:50:43.314Z,22912
2019-06-26T12:51:53.268Z,88256
2019-06-26T12:53:03.228Z,99616
2019-06-26T12:54:12.939Z,88064
2019-06-26T12:55:22.682Z,106720
2019-06-26T12:56:33.010Z,68256
2019-06-26T12:57:42.984Z,49536
2019-06-26T12:58:53.117Z,51040
2019-06-26T13:00:07.747Z,101984
2019-06-26T13:01:17.832Z,86016
2019-06-26T13:02:27.831Z,64864
2019-06-26T13:03:37.835Z,63616
2019-06-26T13:04:51.840Z,57824
2019-06-26T13:06:01.584Z,81088
2019-06-26T13:07:11.545Z,93600
2019-06-26T13:08:21.646Z,101120
2019-06-26T13:09:31.604Z,98272
2019-06-26T13:10:56.056Z,79456
2019-06-26T13:12:06.047Z,65792
2019-06-26T13:13:16.034Z,45728
2019-06-26T13:14:26.050Z,37664
2019-06-26T13:15:36.014Z,46912
2019-06-26T13:16:45.765Z,57408
2019-06-26T13:17:55.755Z,59584
2019-06-26T13:19:09.091Z,76928
2019-06-26T13:20:18.393Z,78080
2019-06-26T13:21:28.500Z,46784
2019-06-26T13:22:38.480Z,70208
2019-06-26T13:23:48.506Z,20832
2019-06-26T13:24:58.293Z,28096
2019-06-26T13:26:08.048Z,36192
2019-06-26T13:27:18.092Z,60960
2019-06-26T13:28:28.098Z,81760
2019-06-26T13:29:38.063Z,68672
2019-06-26T13:30:48.148Z,56544
2019-06-26T13:32:00.650Z,61056
2019-06-26T13:33:10.369Z,77088
2019-06-26T13:34:20.323Z,77568
2019-06-26T13:35:31.432Z,90240
2019-06-26T13:36:41.545Z,85120
2019-06-26T13:37:51.714Z,81440
2019-06-26T13:39:01.187Z,56544
2019-06-26T13:40:11.207Z,40448
2019-06-26T13:41:21.178Z,54528
2019-06-26T13:42:31.140Z,57728
2019-06-26T13:43:41.164Z,54048
2019-06-26T13:44:51.126Z,55232
2019-06-26T13:46:03.628Z,60768
2019-06-26T13:47:13.588Z,77152
2019-06-26T13:48:23.574Z,93984
2019-06-26T13:49:33.537Z,91456
2019-06-26T13:50:43.500Z,114176
2019-06-26T13:51:53.403Z,84160
2019-06-26T13:53:03.366Z,66464
2019-06-26T13:54:13.338Z,56960
2019-06-26T13:55:23.311Z,64064
2019-06-26T13:56:33.315Z,42976
2019-06-26T13:57:43.292Z,41632
2019-06-26T13:58:53.257Z,46048
2019-06-26T14:00:03.299Z,69056
2019-06-26T14:01:13.222Z,62784
2019-06-26T14:02:26.771Z,53824
2019-06-26T14:03:36.762Z,41952
2019-06-26T14:04:46.809Z,37696
2019-06-26T14:05:56.771Z,39072
2019-06-26T14:07:08.634Z,35808
2019-06-26T14:08:18.735Z,34048
2019-06-26T14:09:28.749Z,44864
2019-06-26T14:10:38.714Z,39712
2019-06-26T14:11:48.668Z,38944
2019-06-26T14:12:58.618Z,47360
2019-06-26T14:14:08.332Z,30336
2019-06-26T14:15:18.132Z,31424
2019-06-26T14:16:32.187Z,34144
2019-06-26T14:17:42.185Z,49216
2019-06-26T14:18:52.335Z,50912
2019-06-26T14:20:02.130Z,30048
2019-06-26T14:21:27.288Z,31712
2019-06-26T14:22:37.000Z,26688
2019-06-26T14:23:46.957Z,28544
2019-06-26T14:24:59.086Z,35776
2019-06-26T14:26:09.078Z,37824
2019-06-26T14:27:19.045Z,37152
2019-06-26T14:28:29.044Z,67040
2019-06-26T14:29:38.776Z,60864
2019-06-26T14:30:48.728Z,63584
2019-06-26T14:31:58.698Z,39360
2019-06-26T14:33:08.693Z,44320
2019-06-26T14:34:18.694Z,32960
2019-06-26T14:35:28.402Z,43136
2019-06-26T14:36:38.418Z,34112
2019-06-26T14:37:08.538Z,28928
2019-06-26T14:38:17.981Z,21856
2019-06-26T14:39:27.946Z,18720
2019-06-26T14:40:37.979Z,18880
2019-06-26T14:41:47.949Z,17440
2019-06-26T14:42:57.986Z,18336
2019-06-26T14:44:07.749Z,20256
2019-06-26T14:45:17.209Z,22432
2019-06-26T14:46:27.180Z,23744
2019-06-26T14:47:40.327Z,23904
2019-06-26T14:48:49.771Z,21344
2019-06-26T14:49:59.725Z,18752
2019-06-26T14:51:09.717Z,16544
2019-06-26T14:52:19.678Z,15152
2019-06-26T14:53:29.633Z,14588
2019-06-26T14:54:39.616Z,13936
2019-06-26T14:55:49.620Z,13024
2019-06-26T14:56:59.581Z,11560
2019-06-26T14:58:09.539Z,9664
2019-06-26T14:59:19.253Z,8172
2019-06-26T15:00:29.215Z,8444
2019-06-26T15:01:39.182Z,9680
2019-06-26T15:02:49.226Z,10532
2019-06-26T15:03:58.704Z,11220
2019-06-26T15:05:08.684Z,10684
2019-06-26T15:06:24.052Z,9884
2019-06-26T15:07:34.008Z,9288
2019-06-26T15:08:44.254Z,8616
2019-06-26T15:09:54.407Z,8368
2019-06-26T15:11:04.361Z,8380
2019-06-26T15:12:14.320Z,8088
2019-06-26T15:13:24.305Z,7596
2019-06-26T15:14:34.275Z,7020
2019-06-26T15:15:43.980Z,6592
2019-06-26T15:16:53.935Z,6740
2019-06-26T15:18:03.941Z,7632
2019-06-26T15:19:13.647Z,8172
2019-06-26T15:20:23.345Z,7836
2019-06-26T15:21:33.413Z,7464
2019-06-26T15:22:43.369Z,7228
2019-06-26T15:23:53.357Z,7220
2019-06-26T15:25:03.395Z,7340
2019-06-26T15:26:13.341Z,7280
2019-06-26T15:27:23.075Z,7140
2019-06-26T15:28:33.065Z,7088
2019-06-26T15:29:43.017Z,7296
2019-06-26T15:30:53.009Z,7712
2019-06-26T15:32:02.959Z,8272
2019-06-26T15:33:12.979Z,8852
2019-06-26T15:34:26.175Z,8960
2019-06-26T15:35:35.981Z,8520